createdAt,value
2019-03-15T00:03:44.528Z,1.54
2019-03-15T00:07:46.741Z,1.57
2019-03-15T00:11:49.000Z,1.56
2019-03-15T00:15:51.167Z,1.53
2019-03-15T00:19:53.434Z,1.57
2019-03-15T00:23:55.617Z,1.55
2019-03-15T00:27:57.916Z,1.54
2019-03-15T00:32:00.355Z,1.54
2019-03-15T00:36:02.638Z,1.55
2019-03-15T00:40:05.120Z,1.52
2019-03-15T00:44:07.420Z,1.52
2019-03-15T00:48:09.613Z,1.51
2019-03-15T00:52:11.898Z,1.51
2019-03-15T00:56:14.116Z,1.54
2019-03-15T01:00:16.590Z,1.56
2019-03-15T01:04:20.274Z,1.56
2019-03-15T01:08:22.543Z,1.58
2019-03-15T01:12:24.723Z,1.58
2019-03-15T01:16:26.985Z,1.56
2019-03-15T01:20:29.198Z,1.59
2019-03-15T01:24:31.453Z,1.56
2019-03-15T01:28:33.666Z,1.55
2019-03-15T01:32:36.219Z,1.54
2019-03-15T01:36:38.485Z,1.54
2019-03-15T01:40:40.731Z,1.54
2019-03-15T01:44:42.903Z,1.52
2019-03-15T01:48:45.189Z,1.51
2019-03-15T01:52:47.404Z,1.51
2019-03-15T01:56:49.703Z,1.48
2019-03-15T02:00:51.969Z,1.49
2019-03-15T02:04:54.655Z,1.47
2019-03-15T02:08:56.871Z,1.51
2019-03-15T02:12:59.169Z,1.50
2019-03-15T02:17:01.369Z,1.50
2019-03-15T02:21:03.658Z,1.49
2019-03-15T02:25:06.462Z,1.47
2019-03-15T02:29:08.734Z,1.50
2019-03-15T02:33:10.941Z,1.48
2019-03-15T02:37:13.457Z,1.50
2019-03-15T02:41:15.635Z,1.50
2019-03-15T02:45:17.929Z,1.47
2019-03-15T02:49:20.468Z,1.46
2019-03-15T02:53:23.043Z,1.47
2019-03-15T02:57:27.419Z,1.47
2019-03-15T03:01:29.716Z,1.45
2019-03-15T03:05:32.168Z,1.50
2019-03-15T03:09:34.602Z,1.48
2019-03-15T03:13:37.335Z,1.50
2019-03-15T03:17:40.343Z,1.50
2019-03-15T03:21:43.756Z,1.47
2019-03-15T03:25:46.046Z,1.46
2019-03-15T03:29:48.315Z,1.47
2019-03-15T03:33:50.598Z,1.46
2019-03-15T03:37:52.813Z,1.47
2019-03-15T03:41:56.341Z,1.48
2019-03-15T03:45:58.580Z,1.49
2019-03-15T03:50:00.926Z,1.52
2019-03-15T03:54:04.264Z,1.49
2019-03-15T03:58:06.796Z,1.53
2019-03-15T04:02:08.986Z,1.52
2019-03-15T04:06:12.119Z,1.51
2019-03-15T04:10:14.515Z,1.51
2019-03-15T04:14:17.030Z,1.50
2019-03-15T04:18:19.193Z,1.49
2019-03-15T04:22:21.454Z,1.49
2019-03-15T04:26:23.682Z,1.47
2019-03-15T04:30:25.918Z,1.47
2019-03-15T04:34:28.596Z,1.46
2019-03-15T04:38:30.938Z,1.42
2019-03-15T04:42:33.125Z,1.40
2019-03-15T04:46:35.431Z,1.39
2019-03-15T04:50:37.590Z,1.43
2019-03-15T04:54:39.908Z,1.44
2019-03-15T04:58:42.290Z,1.40
2019-03-15T05:02:47.589Z,1.40
2019-03-15T05:06:54.261Z,1.44
2019-03-15T05:10:58.700Z,1.40
2019-03-15T05:15:01.256Z,1.42
2019-03-15T05:19:04.702Z,1.38
2019-03-15T05:23:06.981Z,1.38
2019-03-15T05:27:09.225Z,1.37
2019-03-15T05:31:11.447Z,1.38
2019-03-15T05:35:13.836Z,1.36
2019-03-15T05:39:17.129Z,1.32
2019-03-15T05:43:19.363Z,1.35
2019-03-15T05:47:21.602Z,1.33
2019-03-15T05:51:23.893Z,1.34
2019-03-15T05:55:26.203Z,1.33
2019-03-15T05:59:28.451Z,1.33
2019-03-15T06:03:32.933Z,1.34
2019-03-15T06:07:36.783Z,1.36
2019-03-15T06:11:39.388Z,1.37
2019-03-15T06:15:41.616Z,1.38
2019-03-15T06:19:43.977Z,1.40
2019-03-15T06:23:46.255Z,1.41
2019-03-15T06:27:48.444Z,1.42
2019-03-15T06:31:50.707Z,1.44
2019-03-15T06:35:52.899Z,1.45
2019-03-15T06:39:55.295Z,1.46
2019-03-15T06:43:57.552Z,1.47
2019-03-15T06:48:00.888Z,1.49
2019-03-15T06:52:03.268Z,1.53
2019-03-15T06:56:06.766Z,1.53
2019-03-15T07:00:09.568Z,1.54
2019-03-15T07:04:11.809Z,1.57
2019-03-15T07:08:13.980Z,1.61
2019-03-15T07:12:16.273Z,1.70
2019-03-15T07:16:20.138Z,1.74
2019-03-15T07:20:22.374Z,1.78
2019-03-15T07:24:25.740Z,1.78
2019-03-15T07:28:28.159Z,1.87
2019-03-15T07:32:31.070Z,1.95
2019-03-15T07:36:33.484Z,1.94
2019-03-15T07:40:35.674Z,1.99
2019-03-15T07:44:37.910Z,1.96
2019-03-15T07:48:40.097Z,1.95
2019-03-15T07:52:42.425Z,1.97
2019-03-15T07:56:44.603Z,2.01
2019-03-15T08:00:46.866Z,2.07
2019-03-15T08:04:49.060Z,2.04
2019-03-15T08:08:51.306Z,2.05
2019-03-15T08:12:53.480Z,2.06
2019-03-15T08:16:55.706Z,2.07
2019-03-15T08:20:58.420Z,2.00
2019-03-15T08:25:00.705Z,2.00
2019-03-15T08:29:02.955Z,1.94
2019-03-15T08:33:10.469Z,2.06
2019-03-15T08:37:09.106Z,2.00
2019-03-15T08:41:11.373Z,1.97
2019-03-15T08:45:14.459Z,1.95
2019-03-15T08:49:16.772Z,2.07
2019-03-15T08:53:18.926Z,2.12
2019-03-15T08:57:21.216Z,2.17
2019-03-15T09:01:24.028Z,2.13
2019-03-15T09:05:26.511Z,2.03
2019-03-15T09:09:28.883Z,2.07
2019-03-15T09:13:31.301Z,2.11
2019-03-15T09:17:33.655Z,2.11
2019-03-15T09:21:36.343Z,2.17
2019-03-15T09:25:38.618Z,2.22
2019-03-15T09:29:42.571Z,2.12
2019-03-15T09:33:46.208Z,2.06
2019-03-15T09:37:51.708Z,2.09
2019-03-15T09:41:57.263Z,2.10
2019-03-15T09:45:59.496Z,2.15
2019-03-15T09:50:01.682Z,2.24
2019-03-15T09:54:04.032Z,2.27
2019-03-15T09:58:06.237Z,2.25
2019-03-15T10:02:08.661Z,2.26
2019-03-15T10:06:15.697Z,2.27
2019-03-15T10:10:18.509Z,2.29
2019-03-15T10:14:19.498Z,2.39
2019-03-15T10:18:21.774Z,2.40
2019-03-15T10:22:23.953Z,2.52
2019-03-15T10:26:26.404Z,2.49
2019-03-15T10:30:28.595Z,2.47
2019-03-15T10:34:30.828Z,2.49
2019-03-15T10:38:33.011Z,2.60
2019-03-15T10:42:35.275Z,2.59
2019-03-15T10:46:37.487Z,2.62
2019-03-15T10:50:39.856Z,2.74
2019-03-15T10:54:42.049Z,3.03
2019-03-15T10:58:44.330Z,3.30
2019-03-15T11:02:46.519Z,3.36
2019-03-15T11:06:48.769Z,3.18
2019-03-15T11:10:50.961Z,3.11
2019-03-15T11:14:53.393Z,3.13
2019-03-15T11:18:55.611Z,3.18
2019-03-15T11:22:58.077Z,3.21
2019-03-15T11:27:00.471Z,3.18
2019-03-15T11:31:02.724Z,3.02
2019-03-15T11:35:05.246Z,3.00
2019-03-15T11:39:09.467Z,3.14
2019-03-15T11:43:11.655Z,3.17
2019-03-15T11:47:14.024Z,3.15
2019-03-15T11:51:16.164Z,3.15
2019-03-15T11:55:19.518Z,3.04
2019-03-15T11:59:21.715Z,3.04
2019-03-15T12:03:24.031Z,2.95
2019-03-15T12:07:26.256Z,2.91
2019-03-15T12:11:28.523Z,2.90
2019-03-15T12:15:30.875Z,2.82
2019-03-15T12:19:33.175Z,2.74
2019-03-15T12:23:35.370Z,2.75
2019-03-15T12:27:37.762Z,2.73
2019-03-15T12:31:40.093Z,2.69
2019-03-15T12:35:44.552Z,2.62
2019-03-15T12:39:46.868Z,2.51
2019-03-15T12:43:49.295Z,2.44
2019-03-15T12:47:51.631Z,2.47
2019-03-15T12:51:54.103Z,2.42
2019-03-15T12:55:56.302Z,2.38
2019-03-15T12:59:58.659Z,2.29
2019-03-15T13:04:00.843Z,2.21
2019-03-15T13:08:03.423Z,2.12
2019-03-15T13:12:05.615Z,2.05
2019-03-15T13:16:07.874Z,2.05
2019-03-15T13:20:11.806Z,2.03
2019-03-15T13:24:14.074Z,2.02
2019-03-15T13:28:16.254Z,1.99
2019-03-15T13:32:20.406Z,2.03
2019-03-15T13:36:22.676Z,2.04
2019-03-15T13:40:24.981Z,2.01
2019-03-15T13:44:27.166Z,2.00
2019-03-15T13:48:30.523Z,2.00
2019-03-15T13:52:32.705Z,1.98
2019-03-15T13:56:35.235Z,1.95
2019-03-15T14:00:37.468Z,1.92
2019-03-15T14:04:39.857Z,1.95
2019-03-15T14:08:42.034Z,2.01
2019-03-15T14:12:45.255Z,1.94
2019-03-15T14:16:47.456Z,1.89
2019-03-15T14:20:49.946Z,1.87
2019-03-15T14:24:52.140Z,1.92
2019-03-15T14:28:58.399Z,1.94
2019-03-15T14:33:01.945Z,1.86
2019-03-15T14:37:05.316Z,1.80
2019-03-15T14:41:08.091Z,1.83
2019-03-15T14:45:10.932Z,1.86
2019-03-15T14:49:13.210Z,1.79
2019-03-15T14:53:15.908Z,1.79
2019-03-15T14:57:18.086Z,1.79
2019-03-15T15:01:20.388Z,1.76
2019-03-15T15:05:22.601Z,1.70
2019-03-15T15:09:25.054Z,1.65
2019-03-15T15:13:27.292Z,1.59
2019-03-15T15:17:29.619Z,1.57
2019-03-15T15:21:31.809Z,1.58
2019-03-15T15:25:34.088Z,1.54
2019-03-15T15:29:36.634Z,1.50
2019-03-15T15:33:40.524Z,1.45
2019-03-15T15:37:42.921Z,1.44
2019-03-15T15:41:45.218Z,1.46
2019-03-15T15:45:47.573Z,1.44
2019-03-15T15:49:49.866Z,1.42
2019-03-15T15:53:52.098Z,1.39
2019-03-15T15:57:54.361Z,1.34
2019-03-15T16:01:56.568Z,1.34
2019-03-15T16:05:59.033Z,1.32
2019-03-15T16:10:01.223Z,1.28
2019-03-15T16:14:03.802Z,1.26
2019-03-15T16:18:06.003Z,1.26
2019-03-15T16:22:08.348Z,1.28
2019-03-15T16:26:10.578Z,1.28
2019-03-15T16:30:13.857Z,1.29
2019-03-15T16:34:16.047Z,1.30
2019-03-15T16:38:18.333Z,1.32
2019-03-15T16:42:20.771Z,1.33
2019-03-15T16:46:23.082Z,1.33
2019-03-15T16:50:25.339Z,1.33
2019-03-15T16:54:27.645Z,1.34
2019-03-15T16:58:29.839Z,1.36
2019-03-15T17:02:32.128Z,1.36
2019-03-15T17:06:34.355Z,1.37
2019-03-15T17:10:36.650Z,1.29
2019-03-15T17:14:39.076Z,1.22
2019-03-15T17:18:41.618Z,1.18
2019-03-15T17:22:44.851Z,1.15
2019-03-15T17:26:47.102Z,1.14
2019-03-15T17:30:49.386Z,1.13
2019-03-15T17:34:51.795Z,1.14
2019-03-15T17:38:54.067Z,1.11
2019-03-15T17:42:56.485Z,1.08
2019-03-15T17:47:00.020Z,1.06
2019-03-15T17:51:02.397Z,1.05
2019-03-15T17:55:04.704Z,1.05
2019-03-15T17:59:12.509Z,1.07
2019-03-15T18:03:20.649Z,1.11
2019-03-15T18:07:15.206Z,1.15
2019-03-15T18:11:17.415Z,1.18
2019-03-15T18:15:19.874Z,1.25
2019-03-15T18:19:22.133Z,1.29
2019-03-15T18:23:24.702Z,1.31
2019-03-15T18:27:27.019Z,1.34
2019-03-15T18:31:29.775Z,1.41
2019-03-15T18:35:34.034Z,1.42
2019-03-15T18:39:35.969Z,1.44
2019-03-15T18:43:38.149Z,1.52
2019-03-15T18:47:40.828Z,1.58
2019-03-15T18:51:43.128Z,1.59
2019-03-15T18:55:45.406Z,1.63
2019-03-15T18:59:47.583Z,1.67
2019-03-15T19:03:49.860Z,1.67
2019-03-15T19:07:52.104Z,1.70
2019-03-15T19:11:54.375Z,1.71
2019-03-15T19:15:56.576Z,1.72
2019-03-15T19:19:58.843Z,1.80
2019-03-15T19:24:01.028Z,1.82
2019-03-15T19:28:03.522Z,1.85
2019-03-15T19:32:06.949Z,1.90
2019-03-15T19:36:09.194Z,1.88
2019-03-15T19:40:12.616Z,1.88
2019-03-15T19:44:14.914Z,1.86
2019-03-15T19:48:17.125Z,1.84
2019-03-15T19:52:19.699Z,1.89
2019-03-15T19:56:21.882Z,1.86
2019-03-15T20:00:24.295Z,1.85
2019-03-15T20:04:26.581Z,1.79
2019-03-15T20:08:28.875Z,1.87
2019-03-15T20:12:31.113Z,1.88
2019-03-15T20:16:33.407Z,1.91
2019-03-15T20:20:35.622Z,1.89
2019-03-15T20:24:37.857Z,1.87
2019-03-15T20:28:40.088Z,1.88
2019-03-15T20:32:43.921Z,1.81
2019-03-15T20:36:46.159Z,1.86
2019-03-15T20:40:48.443Z,1.84
2019-03-15T20:44:51.656Z,1.87
2019-03-15T20:48:53.945Z,1.88
2019-03-15T20:53:07.611Z,1.85
2019-03-15T20:57:00.186Z,1.85
2019-03-15T21:01:02.398Z,1.83
2019-03-15T21:05:07.861Z,1.84
2019-03-15T21:09:09.599Z,1.87
2019-03-15T21:13:11.880Z,1.87
2019-03-15T21:17:14.329Z,1.83
2019-03-15T21:21:16.645Z,1.81
2019-03-15T21:25:18.846Z,1.88
2019-03-15T21:29:21.180Z,1.87
2019-03-15T21:33:23.654Z,1.85
2019-03-15T21:37:25.946Z,1.90
2019-03-15T21:41:28.194Z,1.83
2019-03-15T21:45:30.466Z,1.85
2019-03-15T21:49:35.218Z,1.82
2019-03-15T21:53:36.598Z,1.83
2019-03-15T21:57:38.883Z,1.82
2019-03-15T22:01:41.159Z,1.83
2019-03-15T22:05:43.453Z,1.82
2019-03-15T22:09:45.722Z,1.78
2019-03-15T22:13:47.923Z,1.82
2019-03-15T22:17:50.366Z,1.85
2019-03-15T22:21:52.746Z,1.84
2019-03-15T22:25:55.010Z,1.87
2019-03-15T22:29:57.287Z,1.91
2019-03-15T22:33:59.785Z,1.91
2019-03-15T22:38:01.994Z,1.94
2019-03-15T22:42:04.294Z,2.00
2019-03-15T22:46:06.512Z,2.01
2019-03-15T22:50:08.745Z,1.98
2019-03-15T22:54:10.936Z,1.98
2019-03-15T22:58:13.198Z,1.96
2019-03-15T23:02:15.405Z,1.93
2019-03-15T23:06:17.704Z,1.97
2019-03-15T23:10:19.910Z,1.95
2019-03-15T23:14:22.178Z,1.97
2019-03-15T23:18:24.380Z,1.91
2019-03-15T23:22:26.778Z,1.83
2019-03-15T23:26:31.550Z,1.74
2019-03-15T23:30:34.014Z,1.69
2019-03-15T23:34:36.670Z,1.63
2019-03-15T23:38:39.197Z,1.62
2019-03-15T23:42:41.684Z,1.64
2019-03-15T23:46:44.299Z,1.67
2019-03-15T23:50:46.473Z,1.66
2019-03-15T23:54:48.933Z,1.63
2019-03-15T23:58:51.343Z,1.62
